sensor_id;sensor_type;location;lat;lon;timestamp;P1;durP1;ratioP1;P2;durP2;ratioP2
1925;SDS011;964;42.606;23.588;2023-02-28T00:01:21;42.45;;;19.42;;
1925;SDS011;964;42.606;23.588;2023-02-28T00:03:48;40.97;;;20.33;;
1925;SDS011;964;42.606;23.588;2023-02-28T00:06:17;30.10;;;16.03;;
1925;SDS011;964;42.606;23.588;2023-02-28T00:08:43;39.57;;;19.20;;
1925;SDS011;964;42.606;23.588;2023-02-28T00:11:12;34.10;;;16.20;;
1925;SDS011;964;42.606;23.588;2023-02-28T00:13:40;38.23;;;16.17;;
1925;SDS011;964;42.606;23.588;2023-02-28T00:16:08;25.97;;;13.97;;
1925;SDS011;964;42.606;23.588;2023-02-28T00:18:38;24.30;;;13.10;;
1925;SDS011;964;42.606;23.588;2023-02-28T00:21:04;26.87;;;13.10;;
1925;SDS011;964;42.606;23.588;2023-02-28T00:23:33;30.23;;;14.87;;
1925;SDS011;964;42.606;23.588;2023-02-28T00:26:00;34.13;;;17.67;;
1925;SDS011;964;42.606;23.588;2023-02-28T00:28:27;42.37;;;16.57;;
1925;SDS011;964;42.606;23.588;2023-02-28T00:30:53;24.63;;;13.40;;
1925;SDS011;964;42.606;23.588;2023-02-28T00:33:22;25.60;;;15.07;;
1925;SDS011;964;42.606;23.588;2023-02-28T00:35:49;43.50;;;20.57;;
1925;SDS011;964;42.606;23.588;2023-02-28T00:38:15;40.30;;;19.10;;
1925;SDS011;964;42.606;23.588;2023-02-28T00:40:44;32.00;;;17.50;;
1925;SDS011;964;42.606;23.588;2023-02-28T00:43:10;29.20;;;17.47;;
1925;SDS011;964;42.606;23.588;2023-02-28T00:45:37;24.20;;;13.80;;
1925;SDS011;964;42.606;23.588;2023-02-28T00:48:04;25.00;;;13.90;;
1925;SDS011;964;42.606;23.588;2023-02-28T00:50:31;25.67;;;14.13;;
1925;SDS011;964;42.606;23.588;2023-02-28T00:52:57;21.80;;;13.00;;
1925;SDS011;964;42.606;23.588;2023-02-28T00:55:24;23.57;;;13.20;;
1925;SDS011;964;42.606;23.588;2023-02-28T00:57:53;21.53;;;13.20;;
1925;SDS011;964;42.606;23.588;2023-02-28T01:00:20;21.67;;;12.10;;
1925;SDS011;964;42.606;23.588;2023-02-28T01:02:47;19.90;;;12.20;;
1925;SDS011;964;42.606;23.588;2023-02-28T01:05:14;22.43;;;12.60;;
1925;SDS011;964;42.606;23.588;2023-02-28T01:07:40;17.57;;;11.10;;
1925;SDS011;964;42.606;23.588;2023-02-28T01:10:08;23.67;;;13.07;;
1925;SDS011;964;42.606;23.588;2023-02-28T01:12:35;18.53;;;11.30;;
1925;SDS011;964;42.606;23.588;2023-02-28T01:15:04;18.33;;;10.43;;
1925;SDS011;964;42.606;23.588;2023-02-28T01:17:31;14.83;;;8.73;;
1925;SDS011;964;42.606;23.588;2023-02-28T01:19:58;14.13;;;8.53;;
1925;SDS011;964;42.606;23.588;2023-02-28T01:22:24;19.60;;;11.57;;
1925;SDS011;964;42.606;23.588;2023-02-28T01:24:51;16.30;;;9.37;;
1925;SDS011;964;42.606;23.588;2023-02-28T01:27:18;17.50;;;8.90;;
1925;SDS011;964;42.606;23.588;2023-02-28T01:29:45;16.33;;;10.00;;
1925;SDS011;964;42.606;23.588;2023-02-28T01:32:13;13.00;;;8.17;;
1925;SDS011;964;42.606;23.588;2023-02-28T01:34:39;18.33;;;10.53;;
1925;SDS011;964;42.606;23.588;2023-02-28T01:37:06;17.35;;;10.82;;
1925;SDS011;964;42.606;23.588;2023-02-28T01:39:33;14.47;;;8.60;;
1925;SDS011;964;42.606;23.588;2023-02-28T01:41:59;16.03;;;9.50;;
1925;SDS011;964;42.606;23.588;2023-02-28T01:47:27;23.57;;;13.77;;
1925;SDS011;964;42.606;23.588;2023-02-28T01:49:57;28.70;;;14.37;;
1925;SDS011;964;42.606;23.588;2023-02-28T01:52:25;24.60;;;13.10;;
1925;SDS011;964;42.606;23.588;2023-02-28T01:54:54;33.53;;;15.57;;
1925;SDS011;964;42.606;23.588;2023-02-28T01:57:24;51.33;;;18.63;;
1925;SDS011;964;42.606;23.588;2023-02-28T01:59:56;31.87;;;16.80;;
1925;SDS011;964;42.606;23.588;2023-02-28T02:02:28;63.77;;;16.27;;
1925;SDS011;964;42.606;23.588;2023-02-28T02:04:56;75.63;;;18.30;;
1925;SDS011;964;42.606;23.588;2023-02-28T02:07:26;37.70;;;15.90;;
1925;SDS011;964;42.606;23.588;2023-02-28T02:10:01;30.93;;;15.77;;
1925;SDS011;964;42.606;23.588;2023-02-28T02:12:33;40.83;;;16.70;;
1925;SDS011;964;42.606;23.588;2023-02-28T02:15:15;30.43;;;15.37;;
1925;SDS011;964;42.606;23.588;2023-02-28T02:17:47;49.13;;;16.57;;
1925;SDS011;964;42.606;23.588;2023-02-28T02:29:33;42.33;;;16.67;;
1925;SDS011;964;42.606;23.588;2023-02-28T02:32:20;68.07;;;16.60;;
1925;SDS011;964;42.606;23.588;2023-02-28T02:35:10;56.07;;;17.70;;
1925;SDS011;964;42.606;23.588;2023-02-28T02:37:42;39.03;;;15.63;;
1925;SDS011;964;42.606;23.588;2023-02-28T02:40:16;39.03;;;15.40;;
1925;SDS011;964;42.606;23.588;2023-02-28T02:42:47;28.10;;;16.20;;
1925;SDS011;964;42.606;23.588;2023-02-28T02:45:19;127.57;;;17.00;;
1925;SDS011;964;42.606;23.588;2023-02-28T02:47:49;67.47;;;16.47;;
1925;SDS011;964;42.606;23.588;2023-02-28T02:50:20;46.37;;;14.20;;
1925;SDS011;964;42.606;23.588;2023-02-28T02:52:51;39.50;;;13.80;;
1925;SDS011;964;42.606;23.588;2023-02-28T02:55:22;32.03;;;11.27;;
1925;SDS011;964;42.606;23.588;2023-02-28T02:57:50;56.25;;;17.33;;
1925;SDS011;964;42.606;23.588;2023-02-28T03:00:22;26.83;;;13.40;;
1925;SDS011;964;42.606;23.588;2023-02-28T03:02:52;55.93;;;12.80;;
1925;SDS011;964;42.606;23.588;2023-02-28T03:05:23;88.38;;;15.38;;
1925;SDS011;964;42.606;23.588;2023-02-28T03:07:52;43.23;;;12.70;;
1925;SDS011;964;42.606;23.588;2023-02-28T03:10:26;38.77;;;11.80;;
1925;SDS011;964;42.606;23.588;2023-02-28T03:13:08;42.53;;;10.87;;
1925;SDS011;964;42.606;23.588;2023-02-28T03:15:44;28.23;;;10.53;;
1925;SDS011;964;42.606;23.588;2023-02-28T03:18:24;33.50;;;11.67;;
1925;SDS011;964;42.606;23.588;2023-02-28T03:21:02;19.53;;;10.90;;
1925;SDS011;964;42.606;23.588;2023-02-28T03:23:41;39.97;;;11.00;;
1925;SDS011;964;42.606;23.588;2023-02-28T03:26:12;31.33;;;12.10;;
1925;SDS011;964;42.606;23.588;2023-02-28T03:28:45;30.70;;;13.20;;
1925;SDS011;964;42.606;23.588;2023-02-28T03:31:19;20.50;;;12.17;;
1925;SDS011;964;42.606;23.588;2023-02-28T03:33:50;47.17;;;18.90;;
1925;SDS011;964;42.606;23.588;2023-02-28T03:36:22;55.47;;;24.97;;
1925;SDS011;964;42.606;23.588;2023-02-28T03:38:54;58.47;;;23.63;;
1925;SDS011;964;42.606;23.588;2023-02-28T03:41:27;32.77;;;15.03;;
1925;SDS011;964;42.606;23.588;2023-02-28T03:43:59;31.13;;;13.87;;
1925;SDS011;964;42.606;23.588;2023-02-28T03:46:31;27.47;;;13.83;;
1925;SDS011;964;42.606;23.588;2023-02-28T03:49:02;12.83;;;8.40;;
1925;SDS011;964;42.606;23.588;2023-02-28T03:51:36;9.80;;;5.77;;
1925;SDS011;964;42.606;23.588;2023-02-28T03:54:06;11.87;;;6.47;;
1925;SDS011;964;42.606;23.588;2023-02-28T03:56:37;7.50;;;5.10;;
1925;SDS011;964;42.606;23.588;2023-02-28T03:59:10;9.30;;;6.00;;
1925;SDS011;964;42.606;23.588;2023-02-28T04:01:41;9.77;;;5.90;;
1925;SDS011;964;42.606;23.588;2023-02-28T04:04:10;10.10;;;7.43;;
1925;SDS011;964;42.606;23.588;2023-02-28T04:06:39;15.20;;;8.40;;
1925;SDS011;964;42.606;23.588;2023-02-28T04:09:06;13.93;;;8.00;;
1925;SDS011;964;42.606;23.588;2023-02-28T04:11:36;12.93;;;9.03;;
1925;SDS011;964;42.606;23.588;2023-02-28T04:14:04;13.03;;;7.90;;
1925;SDS011;964;42.606;23.588;2023-02-28T04:16:32;24.43;;;12.80;;
1925;SDS011;964;42.606;23.588;2023-02-28T04:19:00;22.30;;;10.80;;
1925;SDS011;964;42.606;23.588;2023-02-28T04:21:28;20.77;;;12.30;;
1925;SDS011;964;42.606;23.588;2023-02-28T04:23:56;21.97;;;12.93;;
1925;SDS011;964;42.606;23.588;2023-02-28T04:26:27;17.23;;;10.20;;
1925;SDS011;964;42.606;23.588;2023-02-28T04:28:54;16.97;;;10.10;;
1925;SDS011;964;42.606;23.588;2023-02-28T04:31:21;14.37;;;9.03;;
1925;SDS011;964;42.606;23.588;2023-02-28T04:33:48;16.70;;;12.25;;
1925;SDS011;964;42.606;23.588;2023-02-28T04:36:14;13.77;;;9.67;;
1925;SDS011;964;42.606;23.588;2023-02-28T04:38:42;16.87;;;8.80;;
1925;SDS011;964;42.606;23.588;2023-02-28T04:41:11;25.57;;;8.60;;
1925;SDS011;964;42.606;23.588;2023-02-28T04:43:39;13.87;;;7.90;;
1925;SDS011;964;42.606;23.588;2023-02-28T04:46:05;12.13;;;8.67;;
1925;SDS011;964;42.606;23.588;2023-02-28T04:48:33;19.43;;;12.53;;
1925;SDS011;964;42.606;23.588;2023-02-28T04:51:01;22.20;;;13.97;;
1925;SDS011;964;42.606;23.588;2023-02-28T04:53:28;25.13;;;15.87;;
1925;SDS011;964;42.606;23.588;2023-02-28T04:55:55;24.50;;;15.60;;
1925;SDS011;964;42.606;23.588;2023-02-28T04:58:24;20.13;;;11.60;;
1925;SDS011;964;42.606;23.588;2023-02-28T05:00:51;22.50;;;12.67;;
1925;SDS011;964;42.606;23.588;2023-02-28T05:03:19;24.50;;;14.23;;
1925;SDS011;964;42.606;23.588;2023-02-28T05:05:47;34.77;;;17.23;;
1925;SDS011;964;42.606;23.588;2023-02-28T05:08:14;26.73;;;14.90;;
1925;SDS011;964;42.606;23.588;2023-02-28T05:10:40;26.33;;;15.20;;
1925;SDS011;964;42.606;23.588;2023-02-28T05:16:30;16.40;;;9.60;;
1925;SDS011;964;42.606;23.588;2023-02-28T05:18:57;14.00;;;8.97;;
1925;SDS011;964;42.606;23.588;2023-02-28T05:21:25;15.53;;;8.43;;
1925;SDS011;964;42.606;23.588;2023-02-28T05:23:58;13.73;;;7.50;;
1925;SDS011;964;42.606;23.588;2023-02-28T05:26:29;13.77;;;8.90;;
1925;SDS011;964;42.606;23.588;2023-02-28T05:28:56;15.97;;;10.03;;
1925;SDS011;964;42.606;23.588;2023-02-28T05:31:23;13.80;;;10.17;;
1925;SDS011;964;42.606;23.588;2023-02-28T05:33:51;15.53;;;10.20;;
1925;SDS011;964;42.606;23.588;2023-02-28T05:36:18;16.65;;;12.15;;
1925;SDS011;964;42.606;23.588;2023-02-28T05:38:46;17.00;;;11.30;;
1925;SDS011;964;42.606;23.588;2023-02-28T05:41:13;15.80;;;11.23;;
1925;SDS011;964;42.606;23.588;2023-02-28T05:43:40;18.60;;;12.00;;
1925;SDS011;964;42.606;23.588;2023-02-28T05:46:07;14.70;;;11.10;;
1925;SDS011;964;42.606;23.588;2023-02-28T05:48:36;18.87;;;12.40;;
1925;SDS011;964;42.606;23.588;2023-02-28T05:51:05;21.92;;;13.20;;
1925;SDS011;964;42.606;23.588;2023-02-28T05:53:33;25.40;;;15.90;;
1925;SDS011;964;42.606;23.588;2023-02-28T05:56:00;20.73;;;13.17;;
1925;SDS011;964;42.606;23.588;2023-02-28T05:58:27;28.00;;;17.17;;
1925;SDS011;964;42.606;23.588;2023-02-28T06:00:55;31.17;;;19.30;;
1925;SDS011;964;42.606;23.588;2023-02-28T06:03:22;80.07;;;47.87;;
1925;SDS011;964;42.606;23.588;2023-02-28T06:05:49;120.67;;;69.67;;
1925;SDS011;964;42.606;23.588;2023-02-28T06:08:17;62.55;;;42.10;;
1925;SDS011;964;42.606;23.588;2023-02-28T06:10:44;34.07;;;20.03;;
1925;SDS011;964;42.606;23.588;2023-02-28T06:13:11;22.35;;;15.60;;
1925;SDS011;964;42.606;23.588;2023-02-28T06:15:38;25.27;;;15.40;;
1925;SDS011;964;42.606;23.588;2023-02-28T06:18:04;30.77;;;17.10;;
1925;SDS011;964;42.606;23.588;2023-02-28T06:20:31;35.37;;;22.37;;
1925;SDS011;964;42.606;23.588;2023-02-28T06:22:58;58.87;;;36.70;;
1925;SDS011;964;42.606;23.588;2023-02-28T06:25:26;47.43;;;27.30;;
1925;SDS011;964;42.606;23.588;2023-02-28T06:27:54;33.27;;;20.47;;
1925;SDS011;964;42.606;23.588;2023-02-28T06:30:21;38.70;;;22.50;;
1925;SDS011;964;42.606;23.588;2023-02-28T06:32:50;38.67;;;22.23;;
1925;SDS011;964;42.606;23.588;2023-02-28T06:35:17;36.13;;;22.90;;
1925;SDS011;964;42.606;23.588;2023-02-28T06:37:43;43.05;;;28.00;;
1925;SDS011;964;42.606;23.588;2023-02-28T06:40:12;36.33;;;23.43;;
1925;SDS011;964;42.606;23.588;2023-02-28T06:42:41;35.43;;;20.60;;
1925;SDS011;964;42.606;23.588;2023-02-28T06:45:08;33.67;;;20.60;;
1925;SDS011;964;42.606;23.588;2023-02-28T06:47:35;36.33;;;22.67;;
1925;SDS011;964;42.606;23.588;2023-02-28T06:50:03;32.67;;;21.30;;
1925;SDS011;964;42.606;23.588;2023-02-28T06:52:31;35.10;;;18.73;;
1925;SDS011;964;42.606;23.588;2023-02-28T06:54:58;30.87;;;17.47;;
1925;SDS011;964;42.606;23.588;2023-02-28T06:57:27;36.87;;;20.50;;
1925;SDS011;964;42.606;23.588;2023-02-28T06:59:58;41.53;;;22.10;;
1925;SDS011;964;42.606;23.588;2023-02-28T07:02:25;28.47;;;15.93;;
1925;SDS011;964;42.606;23.588;2023-02-28T07:04:52;37.67;;;18.33;;
1925;SDS011;964;42.606;23.588;2023-02-28T07:07:19;29.53;;;17.40;;
1925;SDS011;964;42.606;23.588;2023-02-28T07:09:45;42.00;;;18.37;;
1925;SDS011;964;42.606;23.588;2023-02-28T07:12:12;30.43;;;16.70;;
1925;SDS011;964;42.606;23.588;2023-02-28T07:14:39;38.50;;;18.17;;
1925;SDS011;964;42.606;23.588;2023-02-28T07:17:07;32.83;;;16.63;;
1925;SDS011;964;42.606;23.588;2023-02-28T07:19:36;31.47;;;17.27;;
1925;SDS011;964;42.606;23.588;2023-02-28T07:22:03;37.47;;;17.80;;
1925;SDS011;964;42.606;23.588;2023-02-28T07:24:30;32.30;;;14.77;;
1925;SDS011;964;42.606;23.588;2023-02-28T07:26:57;40.70;;;17.90;;
1925;SDS011;964;42.606;23.588;2023-02-28T07:29:24;30.60;;;17.40;;
1925;SDS011;964;42.606;23.588;2023-02-28T07:31:51;26.30;;;14.57;;
1925;SDS011;964;42.606;23.588;2023-02-28T07:34:20;30.13;;;16.50;;
1925;SDS011;964;42.606;23.588;2023-02-28T07:36:46;28.33;;;15.10;;
1925;SDS011;964;42.606;23.588;2023-02-28T07:39:13;32.80;;;17.07;;
1925;SDS011;964;42.606;23.588;2023-02-28T07:41:40;32.27;;;17.70;;
1925;SDS011;964;42.606;23.588;2023-02-28T07:44:09;35.63;;;16.10;;
1925;SDS011;964;42.606;23.588;2023-02-28T07:46:36;39.03;;;19.47;;
1925;SDS011;964;42.606;23.588;2023-02-28T07:49:03;38.20;;;16.30;;
1925;SDS011;964;42.606;23.588;2023-02-28T07:51:31;30.43;;;14.70;;
1925;SDS011;964;42.606;23.588;2023-02-28T07:53:58;38.00;;;17.00;;
1925;SDS011;964;42.606;23.588;2023-02-28T07:56:25;27.80;;;13.03;;
1925;SDS011;964;42.606;23.588;2023-02-28T07:58:53;29.47;;;15.50;;
1925;SDS011;964;42.606;23.588;2023-02-28T08:01:20;41.10;;;15.60;;
1925;SDS011;964;42.606;23.588;2023-02-28T08:03:46;19.40;;;9.90;;
1925;SDS011;964;42.606;23.588;2023-02-28T08:06:16;29.43;;;12.47;;
1925;SDS011;964;42.606;23.588;2023-02-28T08:08:46;23.87;;;12.07;;
1925;SDS011;964;42.606;23.588;2023-02-28T08:11:13;31.37;;;15.73;;
1925;SDS011;964;42.606;23.588;2023-02-28T08:13:42;12.77;;;7.90;;
1925;SDS011;964;42.606;23.588;2023-02-28T08:16:09;24.40;;;14.50;;
1925;SDS011;964;42.606;23.588;2023-02-28T08:18:36;37.30;;;16.93;;
1925;SDS011;964;42.606;23.588;2023-02-28T08:21:05;32.47;;;17.23;;
1925;SDS011;964;42.606;23.588;2023-02-28T08:23:33;33.47;;;18.45;;
1925;SDS011;964;42.606;23.588;2023-02-28T08:26:01;27.17;;;13.97;;
1925;SDS011;964;42.606;23.588;2023-02-28T08:28:28;26.70;;;15.40;;
1925;SDS011;964;42.606;23.588;2023-02-28T08:30:55;38.97;;;16.93;;
1925;SDS011;964;42.606;23.588;2023-02-28T08:33:22;20.53;;;10.63;;
1925;SDS011;964;42.606;23.588;2023-02-28T08:35:51;26.67;;;12.67;;
1925;SDS011;964;42.606;23.588;2023-02-28T08:38:18;27.23;;;12.47;;
1925;SDS011;964;42.606;23.588;2023-02-28T08:40:45;35.77;;;15.27;;
1925;SDS011;964;42.606;23.588;2023-02-28T08:43:13;39.90;;;17.55;;
1925;SDS011;964;42.606;23.588;2023-02-28T08:45:40;32.53;;;15.93;;
1925;SDS011;964;42.606;23.588;2023-02-28T08:48:07;26.60;;;14.00;;
1925;SDS011;964;42.606;23.588;2023-02-28T08:50:33;26.30;;;12.30;;
1925;SDS011;964;42.606;23.588;2023-02-28T08:53:00;30.30;;;14.57;;
1925;SDS011;964;42.606;23.588;2023-02-28T08:55:27;32.43;;;15.00;;
1925;SDS011;964;42.606;23.588;2023-02-28T08:57:53;24.73;;;14.13;;
1925;SDS011;964;42.606;23.588;2023-02-28T09:00:22;27.50;;;15.30;;
1925;SDS011;964;42.606;23.588;2023-02-28T09:02:49;25.47;;;14.70;;
1925;SDS011;964;42.606;23.588;2023-02-28T09:05:16;18.90;;;12.37;;
1925;SDS011;964;42.606;23.588;2023-02-28T09:07:43;31.85;;;18.85;;
1925;SDS011;964;42.606;23.588;2023-02-28T09:10:10;26.80;;;15.63;;
1925;SDS011;964;42.606;23.588;2023-02-28T09:12:37;29.63;;;14.80;;
1925;SDS011;964;42.606;23.588;2023-02-28T09:15:04;23.10;;;15.23;;
1925;SDS011;964;42.606;23.588;2023-02-28T09:17:37;25.53;;;13.87;;
1925;SDS011;964;42.606;23.588;2023-02-28T09:20:05;26.27;;;14.50;;
1925;SDS011;964;42.606;23.588;2023-02-28T09:22:47;21.13;;;12.90;;
1925;SDS011;964;42.606;23.588;2023-02-28T09:25:14;21.37;;;12.73;;
1925;SDS011;964;42.606;23.588;2023-02-28T09:27:40;19.90;;;13.20;;
1925;SDS011;964;42.606;23.588;2023-02-28T09:30:07;24.67;;;13.90;;
1925;SDS011;964;42.606;23.588;2023-02-28T09:32:42;29.70;;;16.00;;
1925;SDS011;964;42.606;23.588;2023-02-28T09:35:17;23.67;;;14.60;;
1925;SDS011;964;42.606;23.588;2023-02-28T09:37:43;22.13;;;11.90;;
1925;SDS011;964;42.606;23.588;2023-02-28T09:40:11;24.73;;;13.93;;
1925;SDS011;964;42.606;23.588;2023-02-28T09:42:39;17.60;;;10.47;;
1925;SDS011;964;42.606;23.588;2023-02-28T09:45:10;24.83;;;14.13;;
1925;SDS011;964;42.606;23.588;2023-02-28T09:47:47;29.77;;;13.90;;
1925;SDS011;964;42.606;23.588;2023-02-28T09:50:17;20.27;;;14.20;;
1925;SDS011;964;42.606;23.588;2023-02-28T09:52:56;25.20;;;13.57;;
1925;SDS011;964;42.606;23.588;2023-02-28T09:55:25;20.27;;;11.87;;
1925;SDS011;964;42.606;23.588;2023-02-28T09:57:56;19.20;;;13.30;;
1925;SDS011;964;42.606;23.588;2023-02-28T10:00:27;28.27;;;15.90;;
1925;SDS011;964;42.606;23.588;2023-02-28T10:03:08;23.98;;;16.02;;
1925;SDS011;964;42.606;23.588;2023-02-28T10:05:48;23.00;;;12.63;;
1925;SDS011;964;42.606;23.588;2023-02-28T10:08:19;23.93;;;14.80;;
1925;SDS011;964;42.606;23.588;2023-02-28T10:10:51;29.70;;;17.90;;
1925;SDS011;964;42.606;23.588;2023-02-28T10:13:24;36.60;;;21.77;;
1925;SDS011;964;42.606;23.588;2023-02-28T10:15:55;31.47;;;19.87;;
1925;SDS011;964;42.606;23.588;2023-02-28T10:18:28;37.53;;;25.08;;
1925;SDS011;964;42.606;23.588;2023-02-28T10:21:02;30.53;;;13.03;;
1925;SDS011;964;42.606;23.588;2023-02-28T10:23:31;23.63;;;16.10;;
1925;SDS011;964;42.606;23.588;2023-02-28T10:26:03;24.47;;;13.20;;
1925;SDS011;964;42.606;23.588;2023-02-28T10:28:37;28.87;;;19.10;;
1925;SDS011;964;42.606;23.588;2023-02-28T10:31:04;27.40;;;15.23;;
1925;SDS011;964;42.606;23.588;2023-02-28T10:33:33;24.67;;;15.10;;
1925;SDS011;964;42.606;23.588;2023-02-28T10:36:02;28.57;;;15.10;;
1925;SDS011;964;42.606;23.588;2023-02-28T10:38:32;26.80;;;15.13;;
1925;SDS011;964;42.606;23.588;2023-02-28T10:41:04;30.30;;;16.30;;
1925;SDS011;964;42.606;23.588;2023-02-28T10:43:32;28.80;;;14.50;;
1925;SDS011;964;42.606;23.588;2023-02-28T10:46:01;27.10;;;14.37;;
1925;SDS011;964;42.606;23.588;2023-02-28T10:48:33;28.93;;;16.33;;
1925;SDS011;964;42.606;23.588;2023-02-28T10:51:04;26.80;;;14.63;;
1925;SDS011;964;42.606;23.588;2023-02-28T10:53:39;24.83;;;13.63;;
1925;SDS011;964;42.606;23.588;2023-02-28T10:56:15;27.03;;;12.23;;
1925;SDS011;964;42.606;23.588;2023-02-28T10:58:54;28.13;;;16.17;;
1925;SDS011;964;42.606;23.588;2023-02-28T11:01:23;31.17;;;13.27;;
1925;SDS011;964;42.606;23.588;2023-02-28T11:03:52;19.83;;;10.97;;
1925;SDS011;964;42.606;23.588;2023-02-28T11:06:20;16.10;;;10.13;;
1925;SDS011;964;42.606;23.588;2023-02-28T11:08:50;11.00;;;5.57;;
1925;SDS011;964;42.606;23.588;2023-02-28T11:11:21;14.37;;;7.13;;
1925;SDS011;964;42.606;23.588;2023-02-28T11:13:51;19.20;;;8.73;;
1925;SDS011;964;42.606;23.588;2023-02-28T11:16:20;27.23;;;15.40;;
1925;SDS011;964;42.606;23.588;2023-02-28T11:18:50;25.93;;;14.97;;
1925;SDS011;964;42.606;23.588;2023-02-28T11:21:21;25.70;;;13.20;;
1925;SDS011;964;42.606;23.588;2023-02-28T11:23:51;19.37;;;10.50;;
1925;SDS011;964;42.606;23.588;2023-02-28T11:26:35;24.37;;;13.00;;
1925;SDS011;964;42.606;23.588;2023-02-28T11:29:11;29.07;;;11.77;;
1925;SDS011;964;42.606;23.588;2023-02-28T11:31:44;24.03;;;13.10;;
1925;SDS011;964;42.606;23.588;2023-02-28T11:34:27;17.47;;;9.63;;
1925;SDS011;964;42.606;23.588;2023-02-28T11:36:56;26.02;;;15.50;;
1925;SDS011;964;42.606;23.588;2023-02-28T11:39:25;22.00;;;12.07;;
1925;SDS011;964;42.606;23.588;2023-02-28T11:42:04;21.80;;;10.10;;
1925;SDS011;964;42.606;23.588;2023-02-28T11:44:43;25.20;;;14.85;;
1925;SDS011;964;42.606;23.588;2023-02-28T11:47:26;25.23;;;13.27;;
1925;SDS011;964;42.606;23.588;2023-02-28T11:50:07;28.17;;;14.70;;
1925;SDS011;964;42.606;23.588;2023-02-28T11:52:50;24.20;;;14.65;;
1925;SDS011;964;42.606;23.588;2023-02-28T11:55:20;26.60;;;15.90;;
1925;SDS011;964;42.606;23.588;2023-02-28T11:58:04;22.93;;;14.43;;
1925;SDS011;964;42.606;23.588;2023-02-28T12:00:45;28.77;;;16.97;;
1925;SDS011;964;42.606;23.588;2023-02-28T12:03:26;32.83;;;14.40;;
1925;SDS011;964;42.606;23.588;2023-02-28T12:06:01;13.07;;;8.47;;
1925;SDS011;964;42.606;23.588;2023-02-28T12:08:45;23.95;;;14.57;;
1925;SDS011;964;42.606;23.588;2023-02-28T12:11:24;27.93;;;12.63;;
1925;SDS011;964;42.606;23.588;2023-02-28T12:14:14;21.87;;;14.23;;
1925;SDS011;964;42.606;23.588;2023-02-28T12:16:54;29.42;;;16.98;;
1925;SDS011;964;42.606;23.588;2023-02-28T12:19:30;23.40;;;12.90;;
1925;SDS011;964;42.606;23.588;2023-02-28T12:22:19;27.70;;;16.05;;
1925;SDS011;964;42.606;23.588;2023-02-28T12:25:02;37.30;;;21.20;;
1925;SDS011;964;42.606;23.588;2023-02-28T12:27:51;22.83;;;11.87;;
1925;SDS011;964;42.606;23.588;2023-02-28T12:30:19;26.37;;;14.17;;
1925;SDS011;964;42.606;23.588;2023-02-28T12:32:51;14.50;;;5.30;;
1925;SDS011;964;42.606;23.588;2023-02-28T12:35:22;18.57;;;9.47;;
1925;SDS011;964;42.606;23.588;2023-02-28T12:37:54;18.27;;;11.13;;
1925;SDS011;964;42.606;23.588;2023-02-28T12:40:25;26.13;;;13.82;;
1925;SDS011;964;42.606;23.588;2023-02-28T12:42:59;22.93;;;14.70;;
1925;SDS011;964;42.606;23.588;2023-02-28T12:45:31;21.60;;;12.50;;
1925;SDS011;964;42.606;23.588;2023-02-28T12:48:07;22.93;;;11.90;;
1925;SDS011;964;42.606;23.588;2023-02-28T12:50:38;21.80;;;10.50;;
1925;SDS011;964;42.606;23.588;2023-02-28T12:53:07;17.27;;;8.40;;
1925;SDS011;964;42.606;23.588;2023-02-28T12:55:41;30.97;;;15.00;;
1925;SDS011;964;42.606;23.588;2023-02-28T12:58:13;19.97;;;11.77;;
1925;SDS011;964;42.606;23.588;2023-02-28T13:03:58;29.30;;;16.08;;
1925;SDS011;964;42.606;23.588;2023-02-28T13:06:46;30.57;;;15.00;;
1925;SDS011;964;42.606;23.588;2023-02-28T13:09:28;20.07;;;13.10;;
1925;SDS011;964;42.606;23.588;2023-02-28T13:11:57;30.35;;;15.68;;
1925;SDS011;964;42.606;23.588;2023-02-28T13:14:25;26.13;;;12.00;;
1925;SDS011;964;42.606;23.588;2023-02-28T13:17:09;21.47;;;11.67;;
1925;SDS011;964;42.606;23.588;2023-02-28T13:19:38;27.30;;;16.58;;
1925;SDS011;964;42.606;23.588;2023-02-28T13:22:15;29.17;;;11.80;;
1925;SDS011;964;42.606;23.588;2023-02-28T13:24:45;21.77;;;11.40;;
1925;SDS011;964;42.606;23.588;2023-02-28T13:30:02;21.07;;;12.97;;
1925;SDS011;964;42.606;23.588;2023-02-28T13:36:22;14.27;;;8.17;;
1925;SDS011;964;42.606;23.588;2023-02-28T13:38:51;20.13;;;9.43;;
1925;SDS011;964;42.606;23.588;2023-02-28T13:44:11;13.37;;;7.17;;
1925;SDS011;964;42.606;23.588;2023-02-28T13:49:43;17.20;;;10.80;;
1925;SDS011;964;42.606;23.588;2023-02-28T13:52:12;20.10;;;13.50;;
1925;SDS011;964;42.606;23.588;2023-02-28T13:54:47;17.90;;;10.33;;
1925;SDS011;964;42.606;23.588;2023-02-28T13:57:25;16.77;;;6.50;;
1925;SDS011;964;42.606;23.588;2023-02-28T14:00:08;14.53;;;7.87;;
1925;SDS011;964;42.606;23.588;2023-02-28T14:02:50;14.90;;;8.87;;
1925;SDS011;964;42.606;23.588;2023-02-28T14:05:31;13.10;;;6.37;;
1925;SDS011;964;42.606;23.588;2023-02-28T14:08:01;14.43;;;9.10;;
1925;SDS011;964;42.606;23.588;2023-02-28T14:10:34;11.53;;;7.80;;
1925;SDS011;964;42.606;23.588;2023-02-28T14:13:11;13.87;;;7.70;;
1925;SDS011;964;42.606;23.588;2023-02-28T14:15:49;25.03;;;8.57;;
1925;SDS011;964;42.606;23.588;2023-02-28T14:18:27;19.77;;;9.73;;
1925;SDS011;964;42.606;23.588;2023-02-28T14:20:59;18.60;;;10.80;;
1925;SDS011;964;42.606;23.588;2023-02-28T14:23:33;28.33;;;15.33;;
1925;SDS011;964;42.606;23.588;2023-02-28T14:26:12;36.93;;;14.10;;
1925;SDS011;964;42.606;23.588;2023-02-28T14:28:47;30.87;;;14.27;;
1925;SDS011;964;42.606;23.588;2023-02-28T14:31:29;16.73;;;9.30;;
1925;SDS011;964;42.606;23.588;2023-02-28T14:34:13;16.53;;;9.93;;
1925;SDS011;964;42.606;23.588;2023-02-28T14:36:51;16.80;;;8.95;;
1925;SDS011;964;42.606;23.588;2023-02-28T14:39:20;19.13;;;11.90;;
1925;SDS011;964;42.606;23.588;2023-02-28T14:41:49;24.47;;;14.57;;
1925;SDS011;964;42.606;23.588;2023-02-28T14:44:17;23.77;;;14.02;;
1925;SDS011;964;42.606;23.588;2023-02-28T14:46:48;24.27;;;13.83;;
1925;SDS011;964;42.606;23.588;2023-02-28T14:49:19;15.10;;;9.20;;
1925;SDS011;964;42.606;23.588;2023-02-28T14:51:49;17.80;;;11.43;;
1925;SDS011;964;42.606;23.588;2023-02-28T14:54:27;22.33;;;13.60;;
1925;SDS011;964;42.606;23.588;2023-02-28T14:56:55;24.80;;;12.60;;
1925;SDS011;964;42.606;23.588;2023-02-28T14:59:26;26.30;;;14.30;;
1925;SDS011;964;42.606;23.588;2023-02-28T15:04:43;15.43;;;10.53;;
1925;SDS011;964;42.606;23.588;2023-02-28T15:07:18;20.37;;;12.90;;
1925;SDS011;964;42.606;23.588;2023-02-28T15:10:06;21.40;;;12.80;;
1925;SDS011;964;42.606;23.588;2023-02-28T15:12:34;20.50;;;13.00;;
1925;SDS011;964;42.606;23.588;2023-02-28T15:15:01;19.13;;;12.80;;
1925;SDS011;964;42.606;23.588;2023-02-28T15:17:30;21.90;;;13.20;;
1925;SDS011;964;42.606;23.588;2023-02-28T15:19:56;20.33;;;13.43;;
1925;SDS011;964;42.606;23.588;2023-02-28T15:22:25;19.77;;;12.03;;
1925;SDS011;964;42.606;23.588;2023-02-28T15:24:57;18.40;;;11.77;;
1925;SDS011;964;42.606;23.588;2023-02-28T15:27:25;12.87;;;9.17;;
1925;SDS011;964;42.606;23.588;2023-02-28T15:29:57;12.93;;;8.80;;
1925;SDS011;964;42.606;23.588;2023-02-28T15:32:26;15.52;;;9.90;;
1925;SDS011;964;42.606;23.588;2023-02-28T15:34:56;14.00;;;8.93;;
1925;SDS011;964;42.606;23.588;2023-02-28T15:37:29;11.73;;;8.60;;
1925;SDS011;964;42.606;23.588;2023-02-28T15:40:11;19.00;;;12.10;;
1925;SDS011;964;42.606;23.588;2023-02-28T15:42:41;14.13;;;8.23;;
1925;SDS011;964;42.606;23.588;2023-02-28T15:48:00;8.90;;;7.33;;